sensor_id;sensor_type;location;lat;lon;timestamp;pressure;altitude;pressure_sealevel;temperature;humidity
73974;BME280;62336;-26.094;27.994;2023-03-03T00:01:53;84894.17;;;34.87;18.42
73974;BME280;62336;-26.094;27.994;2023-03-03T00:04:18;84889.46;;;34.76;18.57
73974;BME280;62336;-26.094;27.994;2023-03-03T00:06:44;84887.04;;;35.11;18.27
73974;BME280;62336;-26.094;27.994;2023-03-03T00:09:10;84881.76;;;35.13;18.42
73974;BME280;62336;-26.094;27.994;2023-03-03T00:11:38;84878.00;;;35.02;18.37
73974;BME280;62336;-26.094;27.994;2023-03-03T00:14:09;84876.44;;;35.35;18.21
73974;BME280;62336;-26.094;27.994;2023-03-03T00:16:30;84876.04;;;35.12;18.16
73974;BME280;62336;-26.094;27.994;2023-03-03T00:18:52;84873.59;;;35.32;18.14
73974;BME280;62336;-26.094;27.994;2023-03-03T00:21:24;84869.44;;;35.27;18.40
73974;BME280;62336;-26.094;27.994;2023-03-03T00:23:42;84866.18;;;35.25;18.41
73974;BME280;62336;-26.094;27.994;2023-03-03T00:26:20;84863.73;;;35.23;18.13
73974;BME280;62336;-26.094;27.994;2023-03-03T00:28:42;84860.82;;;35.13;18.32
73974;BME280;62336;-26.094;27.994;2023-03-03T00:31:00;84861.68;;;35.37;17.98
73974;BME280;62336;-26.094;27.994;2023-03-03T00:33:28;84861.92;;;35.24;18.12
73974;BME280;62336;-26.094;27.994;2023-03-03T00:35:50;84857.80;;;35.35;18.20
73974;BME280;62336;-26.094;27.994;2023-03-03T00:38:17;84854.78;;;35.42;18.23
73974;BME280;62336;-26.094;27.994;2023-03-03T00:40:41;84851.34;;;35.36;18.38
73974;BME280;62336;-26.094;27.994;2023-03-03T00:43:14;84849.03;;;34.85;18.45
73974;BME280;62336;-26.094;27.994;2023-03-03T00:45:39;84850.07;;;35.26;18.45
73974;BME280;62336;-26.094;27.994;2023-03-03T00:47:59;84850.89;;;35.35;18.37
73974;BME280;62336;-26.094;27.994;2023-03-03T00:50:30;84850.32;;;35.45;18.46
73974;BME280;62336;-26.094;27.994;2023-03-03T00:53:00;84851.06;;;35.44;18.35
73974;BME280;62336;-26.094;27.994;2023-03-03T00:55:16;84845.75;;;35.52;18.25
73974;BME280;62336;-26.094;27.994;2023-03-03T00:57:41;84845.64;;;35.29;18.50
73974;BME280;62336;-26.094;27.994;2023-03-03T01:00:08;84845.48;;;35.49;18.55
73974;BME280;62336;-26.094;27.994;2023-03-03T01:02:31;84845.89;;;35.35;18.63
73974;BME280;62336;-26.094;27.994;2023-03-03T01:04:56;84848.47;;;34.94;18.70
73974;BME280;62336;-26.094;27.994;2023-03-03T01:07:22;84848.01;;;35.14;18.70
73974;BME280;62336;-26.094;27.994;2023-03-03T01:09:46;84847.93;;;34.86;19.24
73974;BME280;62336;-26.094;27.994;2023-03-03T01:12:12;84848.01;;;35.15;18.78
73974;BME280;62336;-26.094;27.994;2023-03-03T01:14:37;84849.48;;;34.85;18.83
73974;BME280;62336;-26.094;27.994;2023-03-03T01:17:02;84846.74;;;35.23;18.67
73974;BME280;62336;-26.094;27.994;2023-03-03T01:19:27;84842.61;;;34.96;18.74
73974;BME280;62336;-26.094;27.994;2023-03-03T01:21:52;84846.51;;;34.81;18.87
73974;BME280;62336;-26.094;27.994;2023-03-03T01:24:17;84841.26;;;35.07;18.82
73974;BME280;62336;-26.094;27.994;2023-03-03T01:26:42;84837.30;;;35.34;18.76
73974;BME280;62336;-26.094;27.994;2023-03-03T01:29:08;84836.81;;;35.62;18.64
73974;BME280;62336;-26.094;27.994;2023-03-03T01:31:33;84833.32;;;35.69;18.54
73974;BME280;62336;-26.094;27.994;2023-03-03T01:33:58;84825.76;;;35.37;18.67
73974;BME280;62336;-26.094;27.994;2023-03-03T01:36:24;84827.39;;;35.56;18.60
73974;BME280;62336;-26.094;27.994;2023-03-03T01:38:48;84821.94;;;35.11;18.90
73974;BME280;62336;-26.094;27.994;2023-03-03T01:41:14;84820.29;;;35.10;18.76
73974;BME280;62336;-26.094;27.994;2023-03-03T01:43:44;84816.00;;;35.34;18.80
73974;BME280;62336;-26.094;27.994;2023-03-03T01:48:31;84813.81;;;35.39;18.63
73974;BME280;62336;-26.094;27.994;2023-03-03T01:50:56;84813.85;;;35.03;18.84
73974;BME280;62336;-26.094;27.994;2023-03-03T01:53:22;84814.51;;;35.26;18.66
73974;BME280;62336;-26.094;27.994;2023-03-03T01:55:46;84811.55;;;35.40;18.66
73974;BME280;62336;-26.094;27.994;2023-03-03T01:58:13;84810.57;;;35.67;18.55
73974;BME280;62336;-26.094;27.994;2023-03-03T02:00:38;84809.86;;;35.46;18.54
73974;BME280;62336;-26.094;27.994;2023-03-03T02:03:01;84810.32;;;35.67;18.57
73974;BME280;62336;-26.094;27.994;2023-03-03T02:05:26;84809.07;;;35.32;18.84
73974;BME280;62336;-26.094;27.994;2023-03-03T02:07:51;84812.30;;;35.79;18.46
73974;BME280;62336;-26.094;27.994;2023-03-03T02:10:17;84812.33;;;35.55;18.67
73974;BME280;62336;-26.094;27.994;2023-03-03T02:12:43;84809.88;;;35.40;18.58
73974;BME280;62336;-26.094;27.994;2023-03-03T02:15:15;84804.33;;;33.86;18.70
73974;BME280;62336;-26.094;27.994;2023-03-03T02:17:31;84808.46;;;35.32;18.51
73974;BME280;62336;-26.094;27.994;2023-03-03T02:20:00;84808.80;;;35.62;18.62
73974;BME280;62336;-26.094;27.994;2023-03-03T02:22:25;84806.86;;;35.62;18.63
73974;BME280;62336;-26.094;27.994;2023-03-03T02:24:50;84807.56;;;35.80;18.62
73974;BME280;62336;-26.094;27.994;2023-03-03T02:27:13;84808.51;;;35.60;18.80
73974;BME280;62336;-26.094;27.994;2023-03-03T02:29:37;84806.69;;;35.53;18.90
73974;BME280;62336;-26.094;27.994;2023-03-03T02:32:02;84807.61;;;35.28;18.77
73974;BME280;62336;-26.094;27.994;2023-03-03T02:34:27;84809.52;;;35.42;18.94
73974;BME280;62336;-26.094;27.994;2023-03-03T02:36:53;84812.36;;;35.65;18.72
73974;BME280;62336;-26.094;27.994;2023-03-03T02:39:21;84812.99;;;35.31;18.98
73974;BME280;62336;-26.094;27.994;2023-03-03T02:41:48;84810.40;;;35.26;18.81
73974;BME280;62336;-26.094;27.994;2023-03-03T02:44:10;84809.03;;;35.42;19.12
73974;BME280;62336;-26.094;27.994;2023-03-03T02:46:36;84804.90;;;35.31;18.91
73974;BME280;62336;-26.094;27.994;2023-03-03T02:49:00;84807.48;;;35.36;19.06
73974;BME280;62336;-26.094;27.994;2023-03-03T02:51:24;84806.22;;;35.30;19.04
73974;BME280;62336;-26.094;27.994;2023-03-03T02:53:50;84805.03;;;35.56;18.79
73974;BME280;62336;-26.094;27.994;2023-03-03T02:56:15;84804.90;;;35.24;19.09
73974;BME280;62336;-26.094;27.994;2023-03-03T02:58:41;84804.81;;;35.38;18.90
73974;BME280;62336;-26.094;27.994;2023-03-03T03:01:06;84806.41;;;35.38;18.79
73974;BME280;62336;-26.094;27.994;2023-03-03T03:03:31;84804.62;;;35.24;18.99
73974;BME280;62336;-26.094;27.994;2023-03-03T03:05:57;84802.28;;;35.37;18.84
73974;BME280;62336;-26.094;27.994;2023-03-03T03:08:22;84800.54;;;35.42;18.74
73974;BME280;62336;-26.094;27.994;2023-03-03T03:10:49;84801.46;;;35.46;18.72
73974;BME280;62336;-26.094;27.994;2023-03-03T03:13:14;84799.97;;;35.31;18.95
73974;BME280;62336;-26.094;27.994;2023-03-03T03:15:42;84794.54;;;35.02;19.07
73974;BME280;62336;-26.094;27.994;2023-03-03T03:18:05;84795.68;;;35.16;18.95
73974;BME280;62336;-26.094;27.994;2023-03-03T03:20:30;84797.24;;;35.11;19.07
73974;BME280;62336;-26.094;27.994;2023-03-03T03:22:56;84797.02;;;35.43;18.86
73974;BME280;62336;-26.094;27.994;2023-03-03T03:25:22;84797.04;;;35.23;18.89
73974;BME280;62336;-26.094;27.994;2023-03-03T03:27:48;84799.91;;;35.35;18.89
73974;BME280;62336;-26.094;27.994;2023-03-03T03:30:14;84797.77;;;35.37;18.72
73974;BME280;62336;-26.094;27.994;2023-03-03T03:32:39;84798.90;;;35.23;19.14
73974;BME280;62336;-26.094;27.994;2023-03-03T03:35:06;84798.07;;;34.63;19.20
73974;BME280;62336;-26.094;27.994;2023-03-03T03:37:30;84799.47;;;34.78;19.24
73974;BME280;62336;-26.094;27.994;2023-03-03T03:39:55;84800.32;;;35.10;18.96
73974;BME280;62336;-26.094;27.994;2023-03-03T03:42:21;84804.98;;;35.02;19.18
73974;BME280;62336;-26.094;27.994;2023-03-03T03:44:46;84802.37;;;35.09;19.05
73974;BME280;62336;-26.094;27.994;2023-03-03T03:47:12;84800.84;;;35.06;19.14
73974;BME280;62336;-26.094;27.994;2023-03-03T03:49:37;84803.00;;;35.07;19.09
73974;BME280;62336;-26.094;27.994;2023-03-03T03:52:01;84802.59;;;34.99;19.20
73974;BME280;62336;-26.094;27.994;2023-03-03T03:54:27;84798.96;;;34.95;18.97
73974;BME280;62336;-26.094;27.994;2023-03-03T03:56:52;84798.01;;;34.94;19.22
73974;BME280;62336;-26.094;27.994;2023-03-03T03:59:18;84801.30;;;34.82;19.50
73974;BME280;62336;-26.094;27.994;2023-03-03T04:01:43;84805.77;;;34.79;19.28
73974;BME280;62336;-26.094;27.994;2023-03-03T04:04:08;84807.06;;;34.94;19.17
73974;BME280;62336;-26.094;27.994;2023-03-03T04:06:35;84810.21;;;35.20;19.05
73974;BME280;62336;-26.094;27.994;2023-03-03T04:08:59;84817.46;;;35.11;19.39
73974;BME280;62336;-26.094;27.994;2023-03-03T04:11:24;84818.75;;;34.60;19.42
73974;BME280;62336;-26.094;27.994;2023-03-03T04:13:50;84820.89;;;34.78;19.42
73974;BME280;62336;-26.094;27.994;2023-03-03T04:16:15;84824.21;;;34.90;19.33
73974;BME280;62336;-26.094;27.994;2023-03-03T04:18:42;84827.22;;;34.68;19.43
73974;BME280;62336;-26.094;27.994;2023-03-03T04:21:05;84828.91;;;34.61;19.54
73974;BME280;62336;-26.094;27.994;2023-03-03T04:23:31;84827.89;;;34.71;19.48
73974;BME280;62336;-26.094;27.994;2023-03-03T04:25:56;84827.93;;;34.62;19.53
73974;BME280;62336;-26.094;27.994;2023-03-03T04:28:22;84830.01;;;34.50;19.61
73974;BME280;62336;-26.094;27.994;2023-03-03T04:30:48;84827.55;;;35.16;19.54
73974;BME280;62336;-26.094;27.994;2023-03-03T04:33:13;84826.86;;;34.95;19.53
73974;BME280;62336;-26.094;27.994;2023-03-03T04:35:38;84829.38;;;34.98;19.53
73974;BME280;62336;-26.094;27.994;2023-03-03T04:38:04;84831.14;;;35.18;19.25
73974;BME280;62336;-26.094;27.994;2023-03-03T04:40:29;84837.97;;;34.56;19.82
73974;BME280;62336;-26.094;27.994;2023-03-03T04:42:54;84840.88;;;35.09;19.77
73974;BME280;62336;-26.094;27.994;2023-03-03T04:45:19;84839.34;;;34.19;20.01
73974;BME280;62336;-26.094;27.994;2023-03-03T04:47:45;84837.32;;;34.46;19.83
73974;BME280;62336;-26.094;27.994;2023-03-03T04:50:11;84839.21;;;34.81;19.80
73974;BME280;62336;-26.094;27.994;2023-03-03T04:52:36;84839.27;;;34.91;19.60
73974;BME280;62336;-26.094;27.994;2023-03-03T04:55:01;84841.25;;;35.31;19.43
73974;BME280;62336;-26.094;27.994;2023-03-03T04:57:25;84845.12;;;35.08;19.54
73974;BME280;62336;-26.094;27.994;2023-03-03T04:59:51;84844.78;;;35.18;19.36
73974;BME280;62336;-26.094;27.994;2023-03-03T05:02:16;84846.68;;;34.58;19.76
73974;BME280;62336;-26.094;27.994;2023-03-03T05:04:42;84853.12;;;34.14;20.03
73974;BME280;62336;-26.094;27.994;2023-03-03T05:07:08;84858.29;;;34.77;20.07
73974;BME280;62336;-26.094;27.994;2023-03-03T05:09:33;84862.02;;;35.42;19.65
73974;BME280;62336;-26.094;27.994;2023-03-03T05:12:02;84863.87;;;35.20;19.54
73974;BME280;62336;-26.094;27.994;2023-03-03T05:14:24;84869.86;;;35.40;19.14
73974;BME280;62336;-26.094;27.994;2023-03-03T05:16:49;84877.77;;;35.36;19.68
73974;BME280;62336;-26.094;27.994;2023-03-03T05:19:14;84879.32;;;35.20;19.73
73974;BME280;62336;-26.094;27.994;2023-03-03T05:21:40;84881.02;;;34.81;19.57
73974;BME280;62336;-26.094;27.994;2023-03-03T05:24:04;84880.03;;;35.19;19.51
73974;BME280;62336;-26.094;27.994;2023-03-03T05:26:30;84883.14;;;35.23;19.54
73974;BME280;62336;-26.094;27.994;2023-03-03T05:28:55;84885.31;;;34.53;19.92
73974;BME280;62336;-26.094;27.994;2023-03-03T05:31:21;84884.74;;;35.08;19.63
73974;BME280;62336;-26.094;27.994;2023-03-03T05:33:46;84883.62;;;34.98;19.64
73974;BME280;62336;-26.094;27.994;2023-03-03T05:36:12;84884.50;;;34.92;19.87
73974;BME280;62336;-26.094;27.994;2023-03-03T05:38:37;84884.73;;;35.78;19.37
73974;BME280;62336;-26.094;27.994;2023-03-03T05:41:02;84887.23;;;35.20;19.70
73974;BME280;62336;-26.094;27.994;2023-03-03T05:43:28;84887.98;;;35.10;19.63
73974;BME280;62336;-26.094;27.994;2023-03-03T05:45:55;84885.02;;;35.13;19.88
73974;BME280;62336;-26.094;27.994;2023-03-03T05:48:19;84885.04;;;35.08;19.85
73974;BME280;62336;-26.094;27.994;2023-03-03T05:50:45;84891.24;;;35.21;19.83
73974;BME280;62336;-26.094;27.994;2023-03-03T05:53:10;84895.82;;;35.59;19.42
73974;BME280;62336;-26.094;27.994;2023-03-03T05:55:36;84895.66;;;35.14;19.76
73974;BME280;62336;-26.094;27.994;2023-03-03T05:58:02;84898.30;;;35.64;19.45
73974;BME280;62336;-26.094;27.994;2023-03-03T06:00:27;84903.38;;;35.59;19.61
73974;BME280;62336;-26.094;27.994;2023-03-03T06:02:53;84905.79;;;35.81;19.09
73974;BME280;62336;-26.094;27.994;2023-03-03T06:05:19;84905.02;;;35.31;19.40
73974;BME280;62336;-26.094;27.994;2023-03-03T06:07:44;84908.62;;;35.03;19.72
73974;BME280;62336;-26.094;27.994;2023-03-03T06:10:09;84911.74;;;35.22;19.97
73974;BME280;62336;-26.094;27.994;2023-03-03T06:12:34;84910.21;;;35.15;20.01
73974;BME280;62336;-26.094;27.994;2023-03-03T06:14:59;84908.63;;;35.19;19.95
73974;BME280;62336;-26.094;27.994;2023-03-03T06:17:24;84907.56;;;35.80;19.23
73974;BME280;62336;-26.094;27.994;2023-03-03T06:19:49;84912.64;;;35.49;19.34
73974;BME280;62336;-26.094;27.994;2023-03-03T06:22:14;84908.22;;;36.18;19.27
73974;BME280;62336;-26.094;27.994;2023-03-03T06:24:39;84909.16;;;34.97;19.64
73974;BME280;62336;-26.094;27.994;2023-03-03T06:27:05;84906.46;;;35.81;19.42
73974;BME280;62336;-26.094;27.994;2023-03-03T06:29:30;84906.20;;;35.97;19.10
73974;BME280;62336;-26.094;27.994;2023-03-03T06:31:55;84903.17;;;35.87;19.28
73974;BME280;62336;-26.094;27.994;2023-03-03T06:34:20;84905.39;;;36.00;19.07
73974;BME280;62336;-26.094;27.994;2023-03-03T06:36:45;84902.71;;;35.60;19.25
73974;BME280;62336;-26.094;27.994;2023-03-03T06:39:11;84902.72;;;36.27;18.96
73974;BME280;62336;-26.094;27.994;2023-03-03T06:41:36;84902.50;;;36.11;18.89
73974;BME280;62336;-26.094;27.994;2023-03-03T06:44:01;84902.30;;;36.01;19.09
73974;BME280;62336;-26.094;27.994;2023-03-03T06:46:27;84899.53;;;35.92;19.19
73974;BME280;62336;-26.094;27.994;2023-03-03T06:48:52;84903.14;;;35.96;18.69
73974;BME280;62336;-26.094;27.994;2023-03-03T06:51:23;84901.91;;;36.32;19.08
73974;BME280;62336;-26.094;27.994;2023-03-03T06:53:42;84900.70;;;36.13;19.17
73974;BME280;62336;-26.094;27.994;2023-03-03T06:56:09;84904.96;;;36.03;18.94
73974;BME280;62336;-26.094;27.994;2023-03-03T06:58:34;84907.70;;;36.52;18.81
73974;BME280;62336;-26.094;27.994;2023-03-03T07:00:59;84904.66;;;36.75;18.27
73974;BME280;62336;-26.094;27.994;2023-03-03T07:03:25;84910.41;;;36.95;18.37
73974;BME280;62336;-26.094;27.994;2023-03-03T07:05:48;84911.13;;;36.66;18.63
73974;BME280;62336;-26.094;27.994;2023-03-03T07:08:15;84916.06;;;37.08;18.64
73974;BME280;62336;-26.094;27.994;2023-03-03T07:10:39;84914.51;;;36.82;18.51
73974;BME280;62336;-26.094;27.994;2023-03-03T07:13:17;84916.06;;;36.36;18.64
73974;BME280;62336;-26.094;27.994;2023-03-03T07:15:32;84917.58;;;36.29;18.92
73974;BME280;62336;-26.094;27.994;2023-03-03T07:17:56;84921.64;;;36.43;18.77
73974;BME280;62336;-26.094;27.994;2023-03-03T07:20:22;84921.76;;;36.67;18.53
73974;BME280;62336;-26.094;27.994;2023-03-03T07:22:45;84922.63;;;36.70;18.37
73974;BME280;62336;-26.094;27.994;2023-03-03T07:25:19;84924.14;;;36.78;18.55
73974;BME280;62336;-26.094;27.994;2023-03-03T07:27:37;84925.93;;;36.43;18.69
73974;BME280;62336;-26.094;27.994;2023-03-03T07:32:28;84921.50;;;36.17;18.94
73974;BME280;62336;-26.094;27.994;2023-03-03T07:34:54;84920.53;;;36.39;18.93
73974;BME280;62336;-26.094;27.994;2023-03-03T07:37:24;84918.00;;;36.46;18.67
73974;BME280;62336;-26.094;27.994;2023-03-03T07:39:44;84918.41;;;36.40;19.07
73974;BME280;62336;-26.094;27.994;2023-03-03T07:42:19;84918.69;;;36.52;18.96
73974;BME280;62336;-26.094;27.994;2023-03-03T07:44:35;84917.59;;;36.32;18.79
73974;BME280;62336;-26.094;27.994;2023-03-03T07:46:59;84917.09;;;36.44;18.84
73974;BME280;62336;-26.094;27.994;2023-03-03T07:49:30;84913.85;;;36.44;18.65
73974;BME280;62336;-26.094;27.994;2023-03-03T07:51:53;84917.45;;;36.40;18.93
73974;BME280;62336;-26.094;27.994;2023-03-03T07:54:28;84914.83;;;36.65;18.60
73974;BME280;62336;-26.094;27.994;2023-03-03T07:56:40;84916.77;;;36.68;18.63
73974;BME280;62336;-26.094;27.994;2023-03-03T07:59:16;84915.24;;;36.79;18.50
73974;BME280;62336;-26.094;27.994;2023-03-03T08:01:38;84918.73;;;36.71;18.25
73974;BME280;62336;-26.094;27.994;2023-03-03T08:03:57;84920.33;;;36.82;17.72
73974;BME280;62336;-26.094;27.994;2023-03-03T08:06:34;84925.89;;;36.46;18.04
73974;BME280;62336;-26.094;27.994;2023-03-03T08:08:48;84924.87;;;36.57;17.89
73974;BME280;62336;-26.094;27.994;2023-03-03T08:11:13;84921.74;;;36.65;17.85
73974;BME280;62336;-26.094;27.994;2023-03-03T08:13:41;84924.11;;;36.88;17.82
73974;BME280;62336;-26.094;27.994;2023-03-03T08:18:33;84926.47;;;36.64;18.05
73974;BME280;62336;-26.094;27.994;2023-03-03T08:20:57;84928.50;;;36.61;18.08
73974;BME280;62336;-26.094;27.994;2023-03-03T08:23:20;84929.39;;;36.79;18.03
73974;BME280;62336;-26.094;27.994;2023-03-03T08:25:47;84932.07;;;37.05;17.89
73974;BME280;62336;-26.094;27.994;2023-03-03T08:28:11;84930.44;;;37.08;17.94
73974;BME280;62336;-26.094;27.994;2023-03-03T08:30:37;84930.53;;;36.68;17.87
73974;BME280;62336;-26.094;27.994;2023-03-03T08:33:02;84930.42;;;36.48;18.15
73974;BME280;62336;-26.094;27.994;2023-03-03T08:35:28;84929.39;;;37.14;18.06
73974;BME280;62336;-26.094;27.994;2023-03-03T08:37:53;84926.52;;;36.78;17.94
73974;BME280;62336;-26.094;27.994;2023-03-03T08:40:18;84923.78;;;37.27;17.82
73974;BME280;62336;-26.094;27.994;2023-03-03T08:42:43;84926.51;;;36.99;18.19
73974;BME280;62336;-26.094;27.994;2023-03-03T08:45:10;84926.56;;;37.14;17.94
73974;BME280;62336;-26.094;27.994;2023-03-03T08:47:34;84927.43;;;36.51;18.26
73974;BME280;62336;-26.094;27.994;2023-03-03T08:49:59;84925.70;;;36.47;18.24
73974;BME280;62336;-26.094;27.994;2023-03-03T08:52:25;84917.80;;;36.70;18.09
73974;BME280;62336;-26.094;27.994;2023-03-03T08:54:50;84918.61;;;36.10;18.75
73974;BME280;62336;-26.094;27.994;2023-03-03T08:57:15;84913.29;;;37.08;18.35
73974;BME280;62336;-26.094;27.994;2023-03-03T08:59:41;84913.35;;;37.08;18.43
73974;BME280;62336;-26.094;27.994;2023-03-03T09:02:07;84915.65;;;36.47;18.40
73974;BME280;62336;-26.094;27.994;2023-03-03T09:04:32;84915.21;;;36.48;18.55
73974;BME280;62336;-26.094;27.994;2023-03-03T09:06:57;84910.24;;;36.89;18.17
73974;BME280;62336;-26.094;27.994;2023-03-03T09:09:22;84899.21;;;36.35;18.48
73974;BME280;62336;-26.094;27.994;2023-03-03T09:11:47;84894.75;;;36.49;18.32
73974;BME280;62336;-26.094;27.994;2023-03-03T09:14:14;84893.71;;;36.87;17.98
73974;BME280;62336;-26.094;27.994;2023-03-03T09:16:49;84887.00;;;36.89;17.78
73974;BME280;62336;-26.094;27.994;2023-03-03T09:19:18;84887.15;;;37.15;17.94
73974;BME280;62336;-26.094;27.994;2023-03-03T09:21:30;84893.26;;;37.42;18.57
73974;BME280;62336;-26.094;27.994;2023-03-03T09:23:55;84892.06;;;37.17;18.15
73974;BME280;62336;-26.094;27.994;2023-03-03T09:26:25;84894.64;;;38.00;17.82
73974;BME280;62336;-26.094;27.994;2023-03-03T09:28:43;84890.15;;;37.29;17.91
73974;BME280;62336;-26.094;27.994;2023-03-03T09:31:19;84888.42;;;37.55;17.49
73974;BME280;62336;-26.094;27.994;2023-03-03T09:33:41;84881.92;;;37.47;17.77
73974;BME280;62336;-26.094;27.994;2023-03-03T09:36:11;84879.35;;;37.49;18.02
73974;BME280;62336;-26.094;27.994;2023-03-03T09:38:27;84876.78;;;38.02;18.02
73974;BME280;62336;-26.094;27.994;2023-03-03T09:43:23;84866.16;;;38.23;19.04
73974;BME280;62336;-26.094;27.994;2023-03-03T09:45:51;84859.00;;;38.20;17.87
73974;BME280;62336;-26.094;27.994;2023-03-03T09:48:20;84857.23;;;38.68;17.47
73974;BME280;62336;-26.094;27.994;2023-03-03T09:50:39;84859.48;;;38.50;17.44
73974;BME280;62336;-26.094;27.994;2023-03-03T09:53:07;84855.49;;;38.39;17.42
73974;BME280;62336;-26.094;27.994;2023-03-03T09:55:37;84851.25;;;38.37;17.32
73974;BME280;62336;-26.094;27.994;2023-03-03T09:57:57;84850.17;;;37.89;17.46
73974;BME280;62336;-26.094;27.994;2023-03-03T10:00:23;84847.89;;;37.83;18.29
73974;BME280;62336;-26.094;27.994;2023-03-03T10:02:47;84840.78;;;38.09;17.20
73974;BME280;62336;-26.094;27.994;2023-03-03T10:05:12;84835.33;;;38.43;17.40
73974;BME280;62336;-26.094;27.994;2023-03-03T10:07:39;84834.89;;;38.02;17.56
73974;BME280;62336;-26.094;27.994;2023-03-03T10:10:06;84836.42;;;38.04;17.37
73974;BME280;62336;-26.094;27.994;2023-03-03T10:12:26;84835.12;;;37.58;17.86
73974;BME280;62336;-26.094;27.994;2023-03-03T10:17:22;84833.38;;;37.72;17.87
73974;BME280;62336;-26.094;27.994;2023-03-03T10:19:39;84833.11;;;37.84;17.81
73974;BME280;62336;-26.094;27.994;2023-03-03T10:24:29;84829.00;;;37.55;17.81
73974;BME280;62336;-26.094;27.994;2023-03-03T10:27:04;84825.32;;;37.23;17.53
73974;BME280;62336;-26.094;27.994;2023-03-03T10:29:25;84822.00;;;37.55;17.63
73974;BME280;62336;-26.094;27.994;2023-03-03T10:31:52;84817.63;;;37.18;17.92
73974;BME280;62336;-26.094;27.994;2023-03-03T10:34:16;84812.54;;;37.43;17.82
73974;BME280;62336;-26.094;27.994;2023-03-03T10:36:43;84809.29;;;37.52;17.73
73974;BME280;62336;-26.094;27.994;2023-03-03T10:39:09;84802.87;;;37.88;17.31
73974;BME280;62336;-26.094;27.994;2023-03-03T10:41:37;84798.67;;;37.81;17.80
73974;BME280;62336;-26.094;27.994;2023-03-03T10:44:01;84790.67;;;37.95;17.19
73974;BME280;62336;-26.094;27.994;2023-03-03T10:46:24;84787.43;;;38.30;17.64
73974;BME280;62336;-26.094;27.994;2023-03-03T10:48:51;84783.13;;;37.95;17.95
73974;BME280;62336;-26.094;27.994;2023-03-03T10:51:12;84781.11;;;37.72;17.40
73974;BME280;62336;-26.094;27.994;2023-03-03T10:53:36;84777.21;;;38.28;17.63
73974;BME280;62336;-26.094;27.994;2023-03-03T10:56:09;84772.90;;;38.29;17.23
73974;BME280;62336;-26.094;27.994;2023-03-03T10:58:33;84775.80;;;38.52;16.93
73974;BME280;62336;-26.094;27.994;2023-03-03T11:00:54;84768.58;;;38.46;16.91
73974;BME280;62336;-26.094;27.994;2023-03-03T11:05:42;84760.63;;;38.25;17.15
73974;BME280;62336;-26.094;27.994;2023-03-03T11:08:10;84756.55;;;38.12;17.12
73974;BME280;62336;-26.094;27.994;2023-03-03T11:10:45;84755.18;;;37.76;17.19
73974;BME280;62336;-26.094;27.994;2023-03-03T11:13:04;84755.71;;;38.34;17.28
73974;BME280;62336;-26.094;27.994;2023-03-03T11:15:33;84754.01;;;38.12;17.32
73974;BME280;62336;-26.094;27.994;2023-03-03T11:17:58;84746.90;;;38.42;17.15
73974;BME280;62336;-26.094;27.994;2023-03-03T11:20:21;84744.42;;;38.37;17.41
73974;BME280;62336;-26.094;27.994;2023-03-03T11:22:43;84740.58;;;38.32;17.46
73974;BME280;62336;-26.094;27.994;2023-03-03T11:25:10;84737.81;;;38.78;17.31
73974;BME280;62336;-26.094;27.994;2023-03-03T11:27:43;84738.78;;;38.45;17.33
73974;BME280;62336;-26.094;27.994;2023-03-03T11:30:06;84730.22;;;38.64;17.02
73974;BME280;62336;-26.094;27.994;2023-03-03T11:32:31;84724.95;;;38.73;16.57
73974;BME280;62336;-26.094;27.994;2023-03-03T11:34:55;84717.69;;;38.41;16.74
73974;BME280;62336;-26.094;27.994;2023-03-03T11:37:16;84719.00;;;38.47;16.60
73974;BME280;62336;-26.094;27.994;2023-03-03T11:39:36;84714.39;;;38.78;16.50
73974;BME280;62336;-26.094;27.994;2023-03-03T11:42:08;84710.83;;;38.71;16.16
73974;BME280;62336;-26.094;27.994;2023-03-03T11:44:30;84706.70;;;39.02;15.63
73974;BME280;62336;-26.094;27.994;2023-03-03T11:46:55;84704.87;;;38.97;15.71
73974;BME280;62336;-26.094;27.994;2023-03-03T11:49:22;84703.61;;;38.87;16.07
73974;BME280;62336;-26.094;27.994;2023-03-03T11:51:49;84703.37;;;39.18;15.71
73974;BME280;62336;-26.094;27.994;2023-03-03T11:54:16;84697.42;;;39.08;15.72
73974;BME280;62336;-26.094;27.994;2023-03-03T11:56:39;84686.76;;;39.54;16.00
73974;BME280;62336;-26.094;27.994;2023-03-03T12:01:32;84682.80;;;39.54;16.13
73974;BME280;62336;-26.094;27.994;2023-03-03T12:03:56;84678.32;;;39.39;15.39
73974;BME280;62336;-26.094;27.994;2023-03-03T12:06:22;84677.39;;;39.34;15.91
73974;BME280;62336;-26.094;27.994;2023-03-03T12:11:13;84671.64;;;39.53;15.75
73974;BME280;62336;-26.094;27.994;2023-03-03T12:13:41;84668.92;;;39.84;15.41
73974;BME280;62336;-26.094;27.994;2023-03-03T12:16:05;84665.06;;;39.55;15.59
73974;BME280;62336;-26.094;27.994;2023-03-03T12:20:58;84658.78;;;39.87;15.13
73974;BME280;62336;-26.094;27.994;2023-03-03T12:23:27;84656.63;;;39.32;15.95
73974;BME280;62336;-26.094;27.994;2023-03-03T12:25:41;84653.38;;;39.09;15.96
73974;BME280;62336;-26.094;27.994;2023-03-03T12:28:08;84653.17;;;39.05;16.32
73974;BME280;62336;-26.094;27.994;2023-03-03T12:30:43;84653.60;;;38.87;16.22
73974;BME280;62336;-26.094;27.994;2023-03-03T12:33:07;84652.52;;;38.99;16.27
73974;BME280;62336;-26.094;27.994;2023-03-03T12:35:27;84646.66;;;39.07;16.39
73974;BME280;62336;-26.094;27.994;2023-03-03T12:37:50;84641.86;;;38.74;16.40
73974;BME280;62336;-26.094;27.994;2023-03-03T12:40:16;84639.52;;;38.93;16.35
73974;BME280;62336;-26.094;27.994;2023-03-03T12:42:45;84634.01;;;39.27;16.18
73974;BME280;62336;-26.094;27.994;2023-03-03T12:45:12;84629.82;;;39.00;16.32
73974;BME280;62336;-26.094;27.994;2023-03-03T12:47:31;84629.74;;;39.13;16.43
73974;BME280;62336;-26.094;27.994;2023-03-03T12:50:02;84632.51;;;39.00;16.36
73974;BME280;62336;-26.094;27.994;2023-03-03T12:52:25;84626.45;;;39.62;15.76
73974;BME280;62336;-26.094;27.994;2023-03-03T12:54:53;84626.70;;;39.47;15.95